sensor_id;sensor_type;location;lat;lon;timestamp;temperature;humidity
24410;DHT22;12543;53.364;-1.504;2022-08-06T00:02:39;14.40;90.40
24410;DHT22;12543;53.364;-1.504;2022-08-06T00:05:08;14.40;90.80
24410;DHT22;12543;53.364;-1.504;2022-08-06T00:07:44;14.40;90.90
24410;DHT22;12543;53.364;-1.504;2022-08-06T00:10:14;14.40;90.50
24410;DHT22;12543;53.364;-1.504;2022-08-06T00:12:42;14.40;91.20
24410;DHT22;12543;53.364;-1.504;2022-08-06T00:15:11;14.40;90.40
24410;DHT22;12543;53.364;-1.504;2022-08-06T00:17:41;14.40;90.30
24410;DHT22;12543;53.364;-1.504;2022-08-06T00:20:10;14.30;90.20
24410;DHT22;12543;53.364;-1.504;2022-08-06T00:22:55;14.30;90.30
24410;DHT22;12543;53.364;-1.504;2022-08-06T00:25:22;14.30;90.40
24410;DHT22;12543;53.364;-1.504;2022-08-06T00:27:51;14.30;90.80
24410;DHT22;12543;53.364;-1.504;2022-08-06T00:30:18;14.30;90.60
24410;DHT22;12543;53.364;-1.504;2022-08-06T00:32:48;14.30;90.30
24410;DHT22;12543;53.364;-1.504;2022-08-06T00:35:21;14.30;90.20
24410;DHT22;12543;53.364;-1.504;2022-08-06T00:37:49;14.30;90.20
24410;DHT22;12543;53.364;-1.504;2022-08-06T00:40:24;14.30;90.00
24410;DHT22;12543;53.364;-1.504;2022-08-06T00:42:51;14.30;90.00
24410;DHT22;12543;53.364;-1.504;2022-08-06T00:45:20;14.20;90.10
24410;DHT22;12543;53.364;-1.504;2022-08-06T00:47:51;14.20;90.20
24410;DHT22;12543;53.364;-1.504;2022-08-06T00:50:29;14.20;89.90
24410;DHT22;12543;53.364;-1.504;2022-08-06T00:52:56;14.20;90.70
24410;DHT22;12543;53.364;-1.504;2022-08-06T00:55:24;14.20;90.40
24410;DHT22;12543;53.364;-1.504;2022-08-06T00:58:02;14.20;90.10
24410;DHT22;12543;53.364;-1.504;2022-08-06T01:00:29;14.20;90.00
24410;DHT22;12543;53.364;-1.504;2022-08-06T01:03:04;14.20;90.30
24410;DHT22;12543;53.364;-1.504;2022-08-06T01:05:31;14.20;90.30
24410;DHT22;12543;53.364;-1.504;2022-08-06T01:08:18;14.20;91.50
24410;DHT22;12543;53.364;-1.504;2022-08-06T01:10:45;14.20;91.90
24410;DHT22;12543;53.364;-1.504;2022-08-06T01:13:17;14.10;91.40
24410;DHT22;12543;53.364;-1.504;2022-08-06T01:16:07;14.10;91.50
24410;DHT22;12543;53.364;-1.504;2022-08-06T01:18:45;14.10;90.80
24410;DHT22;12543;53.364;-1.504;2022-08-06T01:30:03;14.00;91.30
24410;DHT22;12543;53.364;-1.504;2022-08-06T01:32:37;14.00;91.30
24410;DHT22;12543;53.364;-1.504;2022-08-06T01:35:13;14.00;92.40
24410;DHT22;12543;53.364;-1.504;2022-08-06T01:38:08;14.00;92.50
24410;DHT22;12543;53.364;-1.504;2022-08-06T01:40:36;14.00;92.60
24410;DHT22;12543;53.364;-1.504;2022-08-06T01:43:06;14.00;91.70
24410;DHT22;12543;53.364;-1.504;2022-08-06T01:45:54;14.00;91.80
24410;DHT22;12543;53.364;-1.504;2022-08-06T01:48:22;14.00;91.70
24410;DHT22;12543;53.364;-1.504;2022-08-06T01:50:55;14.00;91.80
24410;DHT22;12543;53.364;-1.504;2022-08-06T01:53:30;14.00;92.20
24410;DHT22;12543;53.364;-1.504;2022-08-06T01:56:18;13.90;92.20
24410;DHT22;12543;53.364;-1.504;2022-08-06T01:59:07;13.90;91.40
24410;DHT22;12543;53.364;-1.504;2022-08-06T02:01:36;13.90;91.70
24410;DHT22;12543;53.364;-1.504;2022-08-06T02:04:21;13.90;91.50
24410;DHT22;12543;53.364;-1.504;2022-08-06T02:06:50;13.90;92.10
24410;DHT22;12543;53.364;-1.504;2022-08-06T02:09:18;13.90;92.70
24410;DHT22;12543;53.364;-1.504;2022-08-06T02:12:12;13.90;92.50
24410;DHT22;12543;53.364;-1.504;2022-08-06T02:14:56;13.90;93.00
24410;DHT22;12543;53.364;-1.504;2022-08-06T02:17:25;13.80;93.30
24410;DHT22;12543;53.364;-1.504;2022-08-06T02:20:14;13.80;93.40
24410;DHT22;12543;53.364;-1.504;2022-08-06T02:23:02;13.80;93.20
24410;DHT22;12543;53.364;-1.504;2022-08-06T02:25:30;13.80;93.10
24410;DHT22;12543;53.364;-1.504;2022-08-06T02:28:01;13.80;93.80
24410;DHT22;12543;53.364;-1.504;2022-08-06T02:30:31;13.70;93.60
24410;DHT22;12543;53.364;-1.504;2022-08-06T02:33:05;13.70;93.20
24410;DHT22;12543;53.364;-1.504;2022-08-06T02:35:36;13.70;92.90
24410;DHT22;12543;53.364;-1.504;2022-08-06T02:38:28;13.70;92.30
24410;DHT22;12543;53.364;-1.504;2022-08-06T02:40:57;13.70;93.10
24410;DHT22;12543;53.364;-1.504;2022-08-06T02:43:36;13.70;92.70
24410;DHT22;12543;53.364;-1.504;2022-08-06T02:46:11;13.60;92.70
24410;DHT22;12543;53.364;-1.504;2022-08-06T02:51:14;13.60;92.60
24410;DHT22;12543;53.364;-1.504;2022-08-06T02:56:37;13.60;93.20
24410;DHT22;12543;53.364;-1.504;2022-08-06T02:59:15;13.60;93.40
24410;DHT22;12543;53.364;-1.504;2022-08-06T03:01:43;13.60;92.80
24410;DHT22;12543;53.364;-1.504;2022-08-06T03:04:15;13.60;92.40
24410;DHT22;12543;53.364;-1.504;2022-08-06T03:06:45;13.50;92.60
24410;DHT22;12543;53.364;-1.504;2022-08-06T03:09:14;13.50;92.40
24410;DHT22;12543;53.364;-1.504;2022-08-06T03:11:44;13.50;92.60
24410;DHT22;12543;53.364;-1.504;2022-08-06T03:14:14;13.50;92.60
24410;DHT22;12543;53.364;-1.504;2022-08-06T03:17:01;13.50;92.60
24410;DHT22;12543;53.364;-1.504;2022-08-06T03:19:29;13.50;92.90
24410;DHT22;12543;53.364;-1.504;2022-08-06T03:22:18;13.50;93.50
24410;DHT22;12543;53.364;-1.504;2022-08-06T03:25:06;13.50;92.60
24410;DHT22;12543;53.364;-1.504;2022-08-06T03:27:35;13.40;93.00
24410;DHT22;12543;53.364;-1.504;2022-08-06T03:30:10;13.40;92.20
24410;DHT22;12543;53.364;-1.504;2022-08-06T03:32:37;13.40;92.10
24410;DHT22;12543;53.364;-1.504;2022-08-06T03:35:18;13.40;92.20
24410;DHT22;12543;53.364;-1.504;2022-08-06T03:38:10;13.30;91.90
24410;DHT22;12543;53.364;-1.504;2022-08-06T03:40:38;13.40;92.40
24410;DHT22;12543;53.364;-1.504;2022-08-06T03:43:06;13.40;92.00
24410;DHT22;12543;53.364;-1.504;2022-08-06T03:45:52;13.30;91.90
24410;DHT22;12543;53.364;-1.504;2022-08-06T03:48:24;13.30;91.80
24410;DHT22;12543;53.364;-1.504;2022-08-06T03:51:02;13.30;91.80
24410;DHT22;12543;53.364;-1.504;2022-08-06T03:53:36;13.30;92.60
24410;DHT22;12543;53.364;-1.504;2022-08-06T03:56:08;13.30;92.40
24410;DHT22;12543;53.364;-1.504;2022-08-06T03:58:40;13.30;92.20
24410;DHT22;12543;53.364;-1.504;2022-08-06T04:01:14;13.30;92.20
24410;DHT22;12543;53.364;-1.504;2022-08-06T04:03:45;13.30;92.10
24410;DHT22;12543;53.364;-1.504;2022-08-06T04:06:16;13.30;93.20
24410;DHT22;12543;53.364;-1.504;2022-08-06T04:08:46;13.30;92.60
24410;DHT22;12543;53.364;-1.504;2022-08-06T04:11:13;13.30;93.30
24410;DHT22;12543;53.364;-1.504;2022-08-06T04:14:01;13.30;93.00
24410;DHT22;12543;53.364;-1.504;2022-08-06T04:16:33;13.20;92.90
24410;DHT22;12543;53.364;-1.504;2022-08-06T04:19:03;13.30;92.50
24410;DHT22;12543;53.364;-1.504;2022-08-06T04:21:35;13.20;92.40
24410;DHT22;12543;53.364;-1.504;2022-08-06T04:24:22;13.20;92.40
24410;DHT22;12543;53.364;-1.504;2022-08-06T04:26:56;13.20;92.60
24410;DHT22;12543;53.364;-1.504;2022-08-06T04:29:25;13.30;92.70
24410;DHT22;12543;53.364;-1.504;2022-08-06T04:32:13;13.20;92.50
24410;DHT22;12543;53.364;-1.504;2022-08-06T04:34:46;13.20;92.40
24410;DHT22;12543;53.364;-1.504;2022-08-06T04:37:33;13.20;92.70
24410;DHT22;12543;53.364;-1.504;2022-08-06T04:40:06;13.20;92.20
24410;DHT22;12543;53.364;-1.504;2022-08-06T04:42:41;13.20;92.20
24410;DHT22;12543;53.364;-1.504;2022-08-06T04:45:10;13.20;92.10
24410;DHT22;12543;53.364;-1.504;2022-08-06T04:47:57;13.20;92.20
24410;DHT22;12543;53.364;-1.504;2022-08-06T04:50:25;13.20;91.90
24410;DHT22;12543;53.364;-1.504;2022-08-06T04:53:02;13.20;92.10
24410;DHT22;12543;53.364;-1.504;2022-08-06T04:55:30;13.20;92.00
24410;DHT22;12543;53.364;-1.504;2022-08-06T04:58:01;13.20;93.00
24410;DHT22;12543;53.364;-1.504;2022-08-06T05:00:45;13.20;92.30
24410;DHT22;12543;53.364;-1.504;2022-08-06T05:03:26;13.20;92.00
24410;DHT22;12543;53.364;-1.504;2022-08-06T05:08:49;13.20;91.80
24410;DHT22;12543;53.364;-1.504;2022-08-06T05:13:52;13.20;91.70
24410;DHT22;12543;53.364;-1.504;2022-08-06T05:16:20;13.20;91.70
24410;DHT22;12543;53.364;-1.504;2022-08-06T05:18:51;13.20;91.60
24410;DHT22;12543;53.364;-1.504;2022-08-06T05:21:39;13.20;91.60
24410;DHT22;12543;53.364;-1.504;2022-08-06T05:24:27;13.20;91.50
24410;DHT22;12543;53.364;-1.504;2022-08-06T05:27:14;13.20;91.50
24410;DHT22;12543;53.364;-1.504;2022-08-06T05:29:41;13.20;91.60
24410;DHT22;12543;53.364;-1.504;2022-08-06T05:32:20;13.20;91.60
24410;DHT22;12543;53.364;-1.504;2022-08-06T05:34:51;13.30;92.90
24410;DHT22;12543;53.364;-1.504;2022-08-06T05:37:19;13.30;91.90
24410;DHT22;12543;53.364;-1.504;2022-08-06T05:40:06;13.30;91.90
24410;DHT22;12543;53.364;-1.504;2022-08-06T05:42:37;13.30;92.10
24410;DHT22;12543;53.364;-1.504;2022-08-06T05:45:06;13.40;92.00
24410;DHT22;12543;53.364;-1.504;2022-08-06T05:47:36;13.40;92.00
24410;DHT22;12543;53.364;-1.504;2022-08-06T05:50:22;13.40;92.70
24410;DHT22;12543;53.364;-1.504;2022-08-06T05:53:06;13.50;92.50
24410;DHT22;12543;53.364;-1.504;2022-08-06T05:55:38;13.50;92.10
24410;DHT22;12543;53.364;-1.504;2022-08-06T05:58:07;13.50;92.20
24410;DHT22;12543;53.364;-1.504;2022-08-06T06:00:36;13.50;93.00
24410;DHT22;12543;53.364;-1.504;2022-08-06T06:03:11;13.60;92.60
24410;DHT22;12543;53.364;-1.504;2022-08-06T06:05:51;13.60;93.10
24410;DHT22;12543;53.364;-1.504;2022-08-06T06:08:36;13.70;92.80
24410;DHT22;12543;53.364;-1.504;2022-08-06T06:11:21;13.70;92.90
24410;DHT22;12543;53.364;-1.504;2022-08-06T06:14:15;13.70;93.30
24410;DHT22;12543;53.364;-1.504;2022-08-06T06:17:15;13.80;93.20
24410;DHT22;12543;53.364;-1.504;2022-08-06T06:19:49;13.90;93.60
24410;DHT22;12543;53.364;-1.504;2022-08-06T06:22:21;13.90;93.50
24410;DHT22;12543;53.364;-1.504;2022-08-06T06:33:21;14.10;94.60
24410;DHT22;12543;53.364;-1.504;2022-08-06T06:36:11;14.20;93.90
24410;DHT22;12543;53.364;-1.504;2022-08-06T06:38:54;14.20;93.70
24410;DHT22;12543;53.364;-1.504;2022-08-06T06:47:22;14.40;94.80
24410;DHT22;12543;53.364;-1.504;2022-08-06T06:50:13;14.50;94.50
24410;DHT22;12543;53.364;-1.504;2022-08-06T06:52:45;14.50;94.00
24410;DHT22;12543;53.364;-1.504;2022-08-06T06:58:12;14.60;94.40
24410;DHT22;12543;53.364;-1.504;2022-08-06T07:00:51;14.70;94.30
24410;DHT22;12543;53.364;-1.504;2022-08-06T07:03:39;14.70;94.80
24410;DHT22;12543;53.364;-1.504;2022-08-06T07:06:09;14.80;94.10
24410;DHT22;12543;53.364;-1.504;2022-08-06T07:08:57;14.80;94.10
24410;DHT22;12543;53.364;-1.504;2022-08-06T07:11:25;14.90;94.60
24410;DHT22;12543;53.364;-1.504;2022-08-06T07:14:06;14.90;94.30
24410;DHT22;12543;53.364;-1.504;2022-08-06T07:16:33;15.00;94.10
24410;DHT22;12543;53.364;-1.504;2022-08-06T07:19:04;15.00;94.40
24410;DHT22;12543;53.364;-1.504;2022-08-06T07:21:38;15.10;94.50
24410;DHT22;12543;53.364;-1.504;2022-08-06T07:24:08;15.20;94.70
24410;DHT22;12543;53.364;-1.504;2022-08-06T07:26:57;15.20;95.00
24410;DHT22;12543;53.364;-1.504;2022-08-06T07:29:25;15.30;94.80
24410;DHT22;12543;53.364;-1.504;2022-08-06T07:32:12;15.30;94.50
24410;DHT22;12543;53.364;-1.504;2022-08-06T07:34:57;15.30;94.50
24410;DHT22;12543;53.364;-1.504;2022-08-06T07:37:25;15.40;94.70
24410;DHT22;12543;53.364;-1.504;2022-08-06T07:40:05;15.40;94.70
24410;DHT22;12543;53.364;-1.504;2022-08-06T07:42:35;15.50;94.50
24410;DHT22;12543;53.364;-1.504;2022-08-06T07:45:05;15.50;94.70
24410;DHT22;12543;53.364;-1.504;2022-08-06T07:47:42;15.60;94.80
24410;DHT22;12543;53.364;-1.504;2022-08-06T07:50:22;15.70;94.60
24410;DHT22;12543;53.364;-1.504;2022-08-06T07:52:51;15.70;94.70
24410;DHT22;12543;53.364;-1.504;2022-08-06T07:55:20;15.80;94.70
24410;DHT22;12543;53.364;-1.504;2022-08-06T07:57:54;15.80;94.70
24410;DHT22;12543;53.364;-1.504;2022-08-06T08:00:25;15.90;94.70
24410;DHT22;12543;53.364;-1.504;2022-08-06T08:02:54;15.90;94.70
24410;DHT22;12543;53.364;-1.504;2022-08-06T08:06:03;16.00;94.90
24410;DHT22;12543;53.364;-1.504;2022-08-06T08:08:48;16.10;94.90
24410;DHT22;12543;53.364;-1.504;2022-08-06T08:11:16;16.20;94.80
24410;DHT22;12543;53.364;-1.504;2022-08-06T08:14:02;16.30;94.70
24410;DHT22;12543;53.364;-1.504;2022-08-06T08:16:35;16.20;94.60
24410;DHT22;12543;53.364;-1.504;2022-08-06T08:19:26;16.30;94.80
24410;DHT22;12543;53.364;-1.504;2022-08-06T08:22:11;16.30;94.80
24410;DHT22;12543;53.364;-1.504;2022-08-06T08:24:42;16.40;95.10
24410;DHT22;12543;53.364;-1.504;2022-08-06T08:27:20;16.60;95.10
24410;DHT22;12543;53.364;-1.504;2022-08-06T08:29:51;16.70;95.10
24410;DHT22;12543;53.364;-1.504;2022-08-06T08:32:22;16.80;95.10
24410;DHT22;12543;53.364;-1.504;2022-08-06T08:34:50;16.90;95.00
24410;DHT22;12543;53.364;-1.504;2022-08-06T08:37:19;17.00;95.00
24410;DHT22;12543;53.364;-1.504;2022-08-06T08:39:47;17.10;94.90
24410;DHT22;12543;53.364;-1.504;2022-08-06T08:42:19;17.10;94.70
24410;DHT22;12543;53.364;-1.504;2022-08-06T08:44:58;17.20;94.60
24410;DHT22;12543;53.364;-1.504;2022-08-06T08:47:26;17.20;94.20
24410;DHT22;12543;53.364;-1.504;2022-08-06T08:50:14;17.20;93.90
24410;DHT22;12543;53.364;-1.504;2022-08-06T08:52:44;17.20;93.20
24410;DHT22;12543;53.364;-1.504;2022-08-06T08:55:15;17.30;93.40
24410;DHT22;12543;53.364;-1.504;2022-08-06T08:58:03;17.30;93.60
24410;DHT22;12543;53.364;-1.504;2022-08-06T09:00:50;17.30;93.50
24410;DHT22;12543;53.364;-1.504;2022-08-06T09:03:20;17.40;93.90
24410;DHT22;12543;53.364;-1.504;2022-08-06T09:05:48;17.60;93.60
24410;DHT22;12543;53.364;-1.504;2022-08-06T09:08:19;17.70;93.60
24410;DHT22;12543;53.364;-1.504;2022-08-06T09:11:06;17.80;93.10
24410;DHT22;12543;53.364;-1.504;2022-08-06T09:13:53;17.90;93.10
24410;DHT22;12543;53.364;-1.504;2022-08-06T09:16:26;18.00;92.70
24410;DHT22;12543;53.364;-1.504;2022-08-06T09:18:58;17.90;92.70
24410;DHT22;12543;53.364;-1.504;2022-08-06T09:21:26;18.00;93.00
24410;DHT22;12543;53.364;-1.504;2022-08-06T09:23:54;18.10;93.20
24410;DHT22;12543;53.364;-1.504;2022-08-06T09:26:24;18.30;93.60
24410;DHT22;12543;53.364;-1.504;2022-08-06T09:29:18;18.50;93.60
24410;DHT22;12543;53.364;-1.504;2022-08-06T09:31:58;18.60;93.50
24410;DHT22;12543;53.364;-1.504;2022-08-06T09:37:26;18.90;94.00
24410;DHT22;12543;53.364;-1.504;2022-08-06T09:39:55;19.10;93.90
24410;DHT22;12543;53.364;-1.504;2022-08-06T09:42:39;19.30;93.00
24410;DHT22;12543;53.364;-1.504;2022-08-06T09:45:11;19.60;93.50
24410;DHT22;12543;53.364;-1.504;2022-08-06T09:47:46;19.90;93.60
24410;DHT22;12543;53.364;-1.504;2022-08-06T09:50:45;20.30;93.00
24410;DHT22;12543;53.364;-1.504;2022-08-06T09:53:13;20.90;94.80
24410;DHT22;12543;53.364;-1.504;2022-08-06T09:55:47;21.50;94.90
24410;DHT22;12543;53.364;-1.504;2022-08-06T09:58:14;22.10;93.70
24410;DHT22;12543;53.364;-1.504;2022-08-06T10:00:52;22.60;93.70
24410;DHT22;12543;53.364;-1.504;2022-08-06T10:03:19;23.00;93.00
24410;DHT22;12543;53.364;-1.504;2022-08-06T10:06:10;23.30;92.10
24410;DHT22;12543;53.364;-1.504;2022-08-06T10:08:41;23.50;90.50
24410;DHT22;12543;53.364;-1.504;2022-08-06T10:11:11;23.40;88.50
24410;DHT22;12543;53.364;-1.504;2022-08-06T10:13:38;23.40;85.70
24410;DHT22;12543;53.364;-1.504;2022-08-06T10:16:18;23.30;88.20
24410;DHT22;12543;53.364;-1.504;2022-08-06T10:18:47;23.30;87.10
24410;DHT22;12543;53.364;-1.504;2022-08-06T10:21:28;23.30;88.00
24410;DHT22;12543;53.364;-1.504;2022-08-06T10:24:08;23.40;89.20
24410;DHT22;12543;53.364;-1.504;2022-08-06T10:26:35;23.60;89.60
24410;DHT22;12543;53.364;-1.504;2022-08-06T10:29:04;23.80;90.00
24410;DHT22;12543;53.364;-1.504;2022-08-06T10:31:32;24.10;89.20
24410;DHT22;12543;53.364;-1.504;2022-08-06T10:34:00;24.40;85.60
24410;DHT22;12543;53.364;-1.504;2022-08-06T10:36:31;24.40;81.90
24410;DHT22;12543;53.364;-1.504;2022-08-06T10:39:01;24.40;85.00
24410;DHT22;12543;53.364;-1.504;2022-08-06T10:41:29;24.70;86.00
24410;DHT22;12543;53.364;-1.504;2022-08-06T10:44:16;25.10;88.20
24410;DHT22;12543;53.364;-1.504;2022-08-06T10:46:43;25.70;88.80
24410;DHT22;12543;53.364;-1.504;2022-08-06T10:49:10;26.20;90.70
24410;DHT22;12543;53.364;-1.504;2022-08-06T10:52:00;26.90;90.50
24410;DHT22;12543;53.364;-1.504;2022-08-06T10:54:30;27.30;87.40
24410;DHT22;12543;53.364;-1.504;2022-08-06T10:56:58;27.30;79.60
24410;DHT22;12543;53.364;-1.504;2022-08-06T10:59:31;27.20;81.80
24410;DHT22;12543;53.364;-1.504;2022-08-06T11:02:29;26.80;79.30
24410;DHT22;12543;53.364;-1.504;2022-08-06T11:05:07;26.40;74.30
24410;DHT22;12543;53.364;-1.504;2022-08-06T11:10:56;25.70;80.40
24410;DHT22;12543;53.364;-1.504;2022-08-06T11:13:34;25.70;76.70
24410;DHT22;12543;53.364;-1.504;2022-08-06T11:16:23;25.70;80.20
24410;DHT22;12543;53.364;-1.504;2022-08-06T11:24:24;25.30;79.60
24410;DHT22;12543;53.364;-1.504;2022-08-06T11:26:51;25.30;82.70
24410;DHT22;12543;53.364;-1.504;2022-08-06T11:29:27;25.60;86.00
24410;DHT22;12543;53.364;-1.504;2022-08-06T11:35:03;26.70;86.00
24410;DHT22;12543;53.364;-1.504;2022-08-06T11:37:49;27.00;83.10
24410;DHT22;12543;53.364;-1.504;2022-08-06T11:54:16;26.10;79.30
24410;DHT22;12543;53.364;-1.504;2022-08-06T11:59:30;25.50;79.40
24410;DHT22;12543;53.364;-1.504;2022-08-06T12:02:04;25.20;79.60
24410;DHT22;12543;53.364;-1.504;2022-08-06T12:07:19;24.80;80.70
24410;DHT22;12543;53.364;-1.504;2022-08-06T12:09:59;24.60;81.40
24410;DHT22;12543;53.364;-1.504;2022-08-06T12:12:31;24.40;80.60
24410;DHT22;12543;53.364;-1.504;2022-08-06T12:18:00;24.10;82.20
24410;DHT22;12543;53.364;-1.504;2022-08-06T12:20:46;24.00;81.40
24410;DHT22;12543;53.364;-1.504;2022-08-06T12:23:21;24.00;82.80
24410;DHT22;12543;53.364;-1.504;2022-08-06T12:26:09;24.10;83.10
24410;DHT22;12543;53.364;-1.504;2022-08-06T12:28:36;24.20;81.70
24410;DHT22;12543;53.364;-1.504;2022-08-06T12:31:04;24.30;82.90
24410;DHT22;12543;53.364;-1.504;2022-08-06T12:33:51;24.20;81.30
24410;DHT22;12543;53.364;-1.504;2022-08-06T12:36:18;24.20;82.10
24410;DHT22;12543;53.364;-1.504;2022-08-06T12:39:02;24.10;80.10
24410;DHT22;12543;53.364;-1.504;2022-08-06T12:41:33;23.90;82.00
24410;DHT22;12543;53.364;-1.504;2022-08-06T12:44:13;23.90;82.30
24410;DHT22;12543;53.364;-1.504;2022-08-06T12:47:13;23.80;82.80
24410;DHT22;12543;53.364;-1.504;2022-08-06T12:49:40;23.80;83.30
24410;DHT22;12543;53.364;-1.504;2022-08-06T12:52:13;23.70;82.90
24410;DHT22;12543;53.364;-1.504;2022-08-06T12:54:42;23.70;83.20
24410;DHT22;12543;53.364;-1.504;2022-08-06T12:57:18;23.60;82.00
24410;DHT22;12543;53.364;-1.504;2022-08-06T12:59:54;23.60;82.00
24410;DHT22;12543;53.364;-1.504;2022-08-06T13:02:21;23.40;82.60
24410;DHT22;12543;53.364;-1.504;2022-08-06T13:04:53;23.40;81.80
24410;DHT22;12543;53.364;-1.504;2022-08-06T13:07:20;23.40;81.30
24410;DHT22;12543;53.364;-1.504;2022-08-06T13:09:49;23.40;82.60
24410;DHT22;12543;53.364;-1.504;2022-08-06T13:12:36;23.40;82.20
24410;DHT22;12543;53.364;-1.504;2022-08-06T13:15:24;23.40;82.90
24410;DHT22;12543;53.364;-1.504;2022-08-06T13:20:58;23.40;83.10
24410;DHT22;12543;53.364;-1.504;2022-08-06T13:23:33;23.30;82.70
24410;DHT22;12543;53.364;-1.504;2022-08-06T13:26:15;23.30;82.90
24410;DHT22;12543;53.364;-1.504;2022-08-06T13:29:09;23.20;83.90
24410;DHT22;12543;53.364;-1.504;2022-08-06T13:34:26;23.30;84.30
24410;DHT22;12543;53.364;-1.504;2022-08-06T13:36:57;23.40;84.60
24410;DHT22;12543;53.364;-1.504;2022-08-06T13:39:30;23.50;83.80
24410;DHT22;12543;53.364;-1.504;2022-08-06T13:42:02;23.60;84.80
24410;DHT22;12543;53.364;-1.504;2022-08-06T13:44:44;23.70;83.90
24410;DHT22;12543;53.364;-1.504;2022-08-06T13:47:12;23.80;84.20
24410;DHT22;12543;53.364;-1.504;2022-08-06T13:50:03;23.80;83.70
24410;DHT22;12543;53.364;-1.504;2022-08-06T13:52:34;23.70;82.00
24410;DHT22;12543;53.364;-1.504;2022-08-06T13:55:01;23.70;83.40
24410;DHT22;12543;53.364;-1.504;2022-08-06T13:57:34;23.70;82.80
24410;DHT22;12543;53.364;-1.504;2022-08-06T14:00:10;23.60;82.20
24410;DHT22;12543;53.364;-1.504;2022-08-06T14:02:41;23.60;82.70
24410;DHT22;12543;53.364;-1.504;2022-08-06T14:05:10;23.40;81.80
24410;DHT22;12543;53.364;-1.504;2022-08-06T14:07:45;23.30;81.50
24410;DHT22;12543;53.364;-1.504;2022-08-06T14:10:13;23.20;82.50
24410;DHT22;12543;53.364;-1.504;2022-08-06T14:12:43;23.00;82.80
24410;DHT22;12543;53.364;-1.504;2022-08-06T14:15:31;22.80;82.40
24410;DHT22;12543;53.364;-1.504;2022-08-06T14:18:08;22.70;82.80
24410;DHT22;12543;53.364;-1.504;2022-08-06T14:20:35;22.50;82.50
24410;DHT22;12543;53.364;-1.504;2022-08-06T14:23:07;22.50;83.30
24410;DHT22;12543;53.364;-1.504;2022-08-06T14:25:34;22.40;83.00
24410;DHT22;12543;53.364;-1.504;2022-08-06T14:28:22;22.40;84.00
24410;DHT22;12543;53.364;-1.504;2022-08-06T14:30:49;22.40;84.20
24410;DHT22;12543;53.364;-1.504;2022-08-06T14:33:18;22.40;84.20
24410;DHT22;12543;53.364;-1.504;2022-08-06T14:35:52;22.50;83.30
24410;DHT22;12543;53.364;-1.504;2022-08-06T14:38:26;22.60;83.80
24410;DHT22;12543;53.364;-1.504;2022-08-06T14:40:59;22.60;83.80
24410;DHT22;12543;53.364;-1.504;2022-08-06T14:44:07;22.80;84.60
24410;DHT22;12543;53.364;-1.504;2022-08-06T14:46:53;22.90;84.80
24410;DHT22;12543;53.364;-1.504;2022-08-06T14:49:20;23.00;84.40
24410;DHT22;12543;53.364;-1.504;2022-08-06T14:51:48;23.00;84.50
24410;DHT22;12543;53.364;-1.504;2022-08-06T14:54:35;23.10;84.50
24410;DHT22;12543;53.364;-1.504;2022-08-06T14:57:08;23.20;84.10
24410;DHT22;12543;53.364;-1.504;2022-08-06T14:59:42;23.10;83.20
24410;DHT22;12543;53.364;-1.504;2022-08-06T15:02:19;23.10;83.20
24410;DHT22;12543;53.364;-1.504;2022-08-06T15:04:50;23.10;83.80
24410;DHT22;12543;53.364;-1.504;2022-08-06T15:07:18;23.10;83.30
24410;DHT22;12543;53.364;-1.504;2022-08-06T15:09:53;23.00;83.30
24410;DHT22;12543;53.364;-1.504;2022-08-06T15:12:40;23.00;83.00
24410;DHT22;12543;53.364;-1.504;2022-08-06T15:15:16;22.90;83.20
24410;DHT22;12543;53.364;-1.504;2022-08-06T15:17:49;22.90;83.50
24410;DHT22;12543;53.364;-1.504;2022-08-06T15:20:36;22.80;83.70
24410;DHT22;12543;53.364;-1.504;2022-08-06T15:23:03;22.70;83.40
24410;DHT22;12543;53.364;-1.504;2022-08-06T15:25:31;22.60;82.80
24410;DHT22;12543;53.364;-1.504;2022-08-06T15:28:18;22.60;83.60
24410;DHT22;12543;53.364;-1.504;2022-08-06T15:30:45;22.50;83.10
24410;DHT22;12543;53.364;-1.504;2022-08-06T15:33:13;22.50;82.80
24410;DHT22;12543;53.364;-1.504;2022-08-06T15:35:42;22.40;83.40
24410;DHT22;12543;53.364;-1.504;2022-08-06T15:38:27;22.40;83.80
24410;DHT22;12543;53.364;-1.504;2022-08-06T15:40:58;22.30;83.90
24410;DHT22;12543;53.364;-1.504;2022-08-06T15:43:26;22.30;83.80
24410;DHT22;12543;53.364;-1.504;2022-08-06T15:46:10;22.20;83.40
24410;DHT22;12543;53.364;-1.504;2022-08-06T15:48:37;22.10;83.50
24410;DHT22;12543;53.364;-1.504;2022-08-06T15:51:23;22.00;83.20
24410;DHT22;12543;53.364;-1.504;2022-08-06T15:53:56;21.90;84.00
24410;DHT22;12543;53.364;-1.504;2022-08-06T15:56:25;21.80;83.50
24410;DHT22;12543;53.364;-1.504;2022-08-06T15:59:05;21.70;81.80
24410;DHT22;12543;53.364;-1.504;2022-08-06T16:01:39;21.50;82.80
24410;DHT22;12543;53.364;-1.504;2022-08-06T16:04:28;21.40;83.60
24410;DHT22;12543;53.364;-1.504;2022-08-06T16:06:58;21.40;83.80
24410;DHT22;12543;53.364;-1.504;2022-08-06T16:09:25;21.30;83.40
24410;DHT22;12543;53.364;-1.504;2022-08-06T16:11:54;21.20;84.50
24410;DHT22;12543;53.364;-1.504;2022-08-06T16:14:21;21.20;84.20
24410;DHT22;12543;53.364;-1.504;2022-08-06T16:17:02;21.10;83.90
24410;DHT22;12543;53.364;-1.504;2022-08-06T16:19:32;21.10;85.00
24410;DHT22;12543;53.364;-1.504;2022-08-06T16:21:59;21.00;84.90
24410;DHT22;12543;53.364;-1.504;2022-08-06T16:24:29;20.90;85.20
24410;DHT22;12543;53.364;-1.504;2022-08-06T16:26:56;20.90;85.20
24410;DHT22;12543;53.364;-1.504;2022-08-06T16:29:23;20.90;85.50
24410;DHT22;12543;53.364;-1.504;2022-08-06T16:31:52;20.80;84.90
24410;DHT22;12543;53.364;-1.504;2022-08-06T16:34:20;20.80;85.20
24410;DHT22;12543;53.364;-1.504;2022-08-06T16:36:59;20.70;85.10
24410;DHT22;12543;53.364;-1.504;2022-08-06T16:39:47;20.70;85.30
24410;DHT22;12543;53.364;-1.504;2022-08-06T16:42:27;20.60;85.50
24410;DHT22;12543;53.364;-1.504;2022-08-06T16:44:55;20.50;86.00
24410;DHT22;12543;53.364;-1.504;2022-08-06T16:47:28;20.50;86.00
24410;DHT22;12543;53.364;-1.504;2022-08-06T16:50:16;20.50;85.70
24410;DHT22;12543;53.364;-1.504;2022-08-06T16:52:54;20.50;86.20
24410;DHT22;12543;53.364;-1.504;2022-08-06T16:55:42;20.40;86.40
24410;DHT22;12543;53.364;-1.504;2022-08-06T16:58:10;20.40;86.50
24410;DHT22;12543;53.364;-1.504;2022-08-06T17:00:57;20.40;86.60
24410;DHT22;12543;53.364;-1.504;2022-08-06T17:03:44;20.40;86.00
24410;DHT22;12543;53.364;-1.504;2022-08-06T17:06:31;20.40;86.50
24410;DHT22;12543;53.364;-1.504;2022-08-06T17:09:02;20.30;86.60
24410;DHT22;12543;53.364;-1.504;2022-08-06T17:11:43;20.30;86.80
24410;DHT22;12543;53.364;-1.504;2022-08-06T17:14:25;20.20;86.80
24410;DHT22;12543;53.364;-1.504;2022-08-06T17:16:53;20.20;86.60
24410;DHT22;12543;53.364;-1.504;2022-08-06T17:19:21;20.20;86.90
24410;DHT22;12543;53.364;-1.504;2022-08-06T17:21:48;20.20;87.20
24410;DHT22;12543;53.364;-1.504;2022-08-06T17:24:26;20.10;87.00
24410;DHT22;12543;53.364;-1.504;2022-08-06T17:27:04;20.10;87.30